createdAt,value
2022-12-15T00:09:57.451Z,84.10
2022-12-15T00:20:22.335Z,78.20
2022-12-15T00:30:49.986Z,72.60
2022-12-15T00:40:59.867Z,74.80
2022-12-15T00:51:07.301Z,68.00
2022-12-15T01:01:31.918Z,57.50
2022-12-15T01:11:55.554Z,54.10
2022-12-15T01:22:02.747Z,45.30
2022-12-15T01:32:09.404Z,40.90
2022-12-15T01:42:15.360Z,39.10
2022-12-15T01:52:22.292Z,49.10
2022-12-15T02:02:35.641Z,46.80
2022-12-15T02:12:44.949Z,37.70
2022-12-15T02:22:55.818Z,45.70
2022-12-15T02:33:02.858Z,43.20
2022-12-15T02:43:12.026Z,42.60
2022-12-15T02:53:21.019Z,42.50
2022-12-15T03:03:31.348Z,40.40
2022-12-15T03:23:44.928Z,47.30
2022-12-15T03:33:52.103Z,38.40
2022-12-15T03:43:59.410Z,38.30
2022-12-15T03:54:07.979Z,34.70
2022-12-15T04:04:15.078Z,38.70
2022-12-15T04:14:22.407Z,38.00
2022-12-15T04:24:47.097Z,34.90
2022-12-15T04:35:11.646Z,33.80
2022-12-15T04:45:38.983Z,28.90
2022-12-15T04:56:03.785Z,31.90
2022-12-15T05:06:29.168Z,30.50
2022-12-15T05:16:53.834Z,30.00
2022-12-15T05:27:18.567Z,35.10
2022-12-15T05:37:25.678Z,37.10
2022-12-15T05:47:32.768Z,47.00
2022-12-15T05:57:39.820Z,39.40
2022-12-15T06:07:47.147Z,33.50
2022-12-15T06:17:56.044Z,31.20
2022-12-15T06:28:03.213Z,30.60
2022-12-15T06:38:10.468Z,36.30
2022-12-15T06:48:18.182Z,28.90
2022-12-15T06:58:25.361Z,35.20
2022-12-15T07:08:39.538Z,33.20
2022-12-15T07:18:48.446Z,31.10
2022-12-15T07:28:56.537Z,28.90
2022-12-15T07:39:04.963Z,35.30
2022-12-15T07:49:11.573Z,31.90
2022-12-15T07:59:18.729Z,29.00
2022-12-15T08:09:25.235Z,29.40
2022-12-15T08:19:32.351Z,39.60
2022-12-15T08:29:54.817Z,35.70
2022-12-15T08:40:02.316Z,30.50
2022-12-15T08:50:11.421Z,23.50
2022-12-15T09:00:17.984Z,25.00
2022-12-15T09:10:25.333Z,29.00
2022-12-15T09:20:32.588Z,29.90
2022-12-15T09:30:39.781Z,25.10
2022-12-15T09:40:49.967Z,18.10
2022-12-15T09:50:58.954Z,29.40
2022-12-15T10:01:09.958Z,24.70
2022-12-15T10:11:17.901Z,23.40
2022-12-15T10:21:27.772Z,28.90
2022-12-15T10:31:36.456Z,20.80
2022-12-15T10:41:44.738Z,24.90
2022-12-15T10:51:57.431Z,37.50
2022-12-15T11:02:27.239Z,29.80
2022-12-15T11:12:58.287Z,27.50
2022-12-15T11:23:09.923Z,23.20
2022-12-15T11:33:17.346Z,24.20
2022-12-15T11:43:43.781Z,23.50
2022-12-15T11:54:03.402Z,22.90
2022-12-15T12:04:13.611Z,23.80
2022-12-15T12:14:21.455Z,20.20
2022-12-15T12:24:31.706Z,26.30
2022-12-15T12:34:40.430Z,23.30
2022-12-15T12:55:24.448Z,24.10
2022-12-15T13:05:28.859Z,23.90
2022-12-15T13:25:41.155Z,23.60
2022-12-15T13:35:49.146Z,22.00
2022-12-15T13:46:01.113Z,19.70
2022-12-15T13:56:07.031Z,18.90
2022-12-15T14:06:15.501Z,28.60
2022-12-15T14:16:25.006Z,27.20
2022-12-15T14:26:32.380Z,31.00
2022-12-15T14:36:40.968Z,27.40
2022-12-15T14:46:47.147Z,23.90
2022-12-15T14:56:58.274Z,31.50
2022-12-15T15:03:05.150Z,25.60
2022-12-15T15:07:07.846Z,31.70
2022-12-15T15:17:16.841Z,24.40
2022-12-15T15:27:26.131Z,49.00
2022-12-15T15:37:35.107Z,35.00
2022-12-15T15:47:42.705Z,31.30
2022-12-15T15:57:48.956Z,58.50
2022-12-15T16:07:56.049Z,66.50
2022-12-15T16:18:03.242Z,63.00
2022-12-15T16:28:14.351Z,58.10
2022-12-15T16:38:19.830Z,65.40
2022-12-15T16:48:27.634Z,81.30
2022-12-15T16:58:37.324Z,77.20
2022-12-15T17:08:48.092Z,78.30
2022-12-15T17:18:55.795Z,90.20
2022-12-15T17:29:09.554Z,97.90
2022-12-15T17:39:19.845Z,94.50
2022-12-15T17:49:33.091Z,103.10
2022-12-15T17:59:43.160Z,99.20
2022-12-15T18:09:51.423Z,102.90
2022-12-15T18:19:58.868Z,110.50
2022-12-15T18:30:06.665Z,86.40
2022-12-15T18:40:15.987Z,80.20
2022-12-15T18:50:20.659Z,77.50
2022-12-15T19:00:26.030Z,76.80
2022-12-15T19:10:35.308Z,78.10
2022-12-15T19:31:08.156Z,91.50
2022-12-15T19:41:14.058Z,85.20
2022-12-15T19:51:24.305Z,75.70
2022-12-15T20:01:30.402Z,73.40
2022-12-15T20:11:39.020Z,70.70
2022-12-15T20:21:46.119Z,65.40
2022-12-15T20:31:54.425Z,58.80
2022-12-15T20:42:01.905Z,72.50
2022-12-15T20:52:07.054Z,62.10
2022-12-15T21:02:20.556Z,56.00
2022-12-15T21:12:29.497Z,42.50
2022-12-15T21:22:36.819Z,31.10
2022-12-15T21:32:42.391Z,29.10
2022-12-15T21:42:50.405Z,33.40
2022-12-15T21:52:58.023Z,35.40
2022-12-15T22:03:05.278Z,38.10
2022-12-15T22:13:13.422Z,38.30
2022-12-15T22:23:17.862Z,31.60
2022-12-15T22:33:27.623Z,39.60
2022-12-15T22:43:32.782Z,44.20
2022-12-15T22:53:40.027Z,38.20
2022-12-15T23:03:48.167Z,35.80
2022-12-15T23:13:55.513Z,44.10
2022-12-15T23:24:03.088Z,42.80
2022-12-15T23:34:10.483Z,39.00
2022-12-15T23:44:17.873Z,34.10
2022-12-15T23:54:24.977Z,45.20
